New Albany, MS (38652)

12:16 AM CDT on July 11, 2014 (GMT -0500)
Northhaven (KMSNEWAL2) Elev 364 ft | 34.51 °N, 89.00 °W | Change Station

Current weather conditions updated 7 minutes ago

Clear
Clear
70.5 °F
Feels Like 70.5 °F
N
0.0
Wind Variable Wind from SW

Today is forecast to be Warmer than yesterday.

Today
High -- | Low -- °F
--% Chance of Precip.
Yesterday
High -- | Low -- °F
Precip. -- in
5:52 AM 8:10 PM
Waxing Gibbous, 98% visible
Pressure 30.10 in
Visibility 10.0 miles
Clouds Clear
Dew Point 69 °F
Humidity 96%
Rainfall 0.00 in
Snow Depth Not available.
UV 0 out of 12
Pollen 2.30 out of 12
Air Quality Not available.
Flu Activity No Activity
METAR KTUP 110453Z 04003KT 10SM CLR 23/21 A3011 RMK AO2 SLP191 T02330211

More Conditions Fewer Conditions

Pressure 30.10 in
Visibility 10.0 miles
Clouds Clear
Dew Point 69 °F
Humidity 96%
Rainfall 0.00 in
Snow Depth Not available.
UV 0 out of 12
Pollen 2.30 out of 12
Air Quality Not available.
Flu Activity No Activity
METAR KTUP 110453Z 04003KT 10SM CLR 23/21 A3011 RMK AO2 SLP191 T02330211

More Conditions Fewer Conditions

10-Day Weather Forecast

Almanac

Astronomy

Jul. 11, 2014 Rise Set
Actual Time 5:52 AM CDT 8:10 PM CDT
Civil Twilight 5:23 AM CDT 8:39 PM CDT
Nautical Twilight 4:47 AM CDT 9:14 PM CDT
Astronomical Twilight 4:09 AM CDT 9:53 PM CDT
Moon 7:23 PM CDT 5:01 AM CDT
Length of Visible Light 15h 16m
Length of Day
14h 18m
Tomorrow will be 0m 56s shorter.
Waxing Gibbous, 98% of the Moon is Illuminated
Today
Waxing Gibbous
Jul 12
Full
Jul 18
Last Quarter
Jul 26
New
Aug 3
First Quarter

Today's Extremes

State Highs State Lows

Community

WunderPhotos

Upload Photos

1,732,397 photos uploaded!

Nearby

Snow Depth

Station Depth Elevation
No new snow has been reported.

Earthquake Activity

City Distance Mag. Time & Date
No recent earthquake activity has been reported nearby.
Minimum magnitude displayed is 2.5.

Coastal Water Temperatures

Place Temperature
No Stations Reporting

Nearby Weather Stations

Station Location Temp. Heat Index Dew Point Humidity Wind Precip. Elev Updated Type
Northhaven, New Albany, MS 70.5 °F - 69 °F 96% SW  at  0.0 mph - / hr 364 ft 12:08 AM CDT Normal
APRSWXNET Sherman MS , Belden, MS 73 °F 71 °F 70 °F 89% NNW  at  0 mph 0.00 in / hr 360 ft 11:04 PM CDT MADIS
Birmingham Ridge / NW Lee County, MS, Saltillo, MS 72.3 °F - 71 °F 97% SSW  at  0.0 mph 0.00 in / hr 308 ft 12:16 AM CDT Rapid Fire
RAWS WINBORN MS, Potts Camp, MS 71 °F - 69 °F 94% North  at  0 mph 0.00 in / hr 500 ft 11:09 PM CDT MADIS
RAWS TUPELO MS, Saltillo, MS 74 °F 71 °F 72 °F 94% North  at  0 mph 0.00 in / hr 319 ft 11:18 PM CDT MADIS
NE Mississippi near Tupelo, Baldwyn, MS 72.1 °F - 71 °F 97% West  at  0.0 mph - / hr 341 ft 12:13 AM CDT Normal
Lee Acres, Tupelo, MS 74.9 °F 74 °F 72 °F 91% NE  at  0.0 mph 0.00 in / hr 340 ft 12:16 AM CDT Rapid Fire

Show More Stations Show Fewer Stations